Trabzon — 9HA2783 — position and weather

sailwx.info

Track history (hours):
 
Tides and Currents Weather Stations Pressure Air Temp Water Temp Dewpoint Dewpoint Depression Visibility Wind Speed Wind Dir Waves Ship Positions

Trabzon

Last reported at 2015-Jan-05 15:09 UTC. Time now 2015-Jan-28 12:15 UTC.
Position N 39°43' W 032°06'.
Warning: this ship's position is 22 days out of date.

Length 229 m; draft 10.5 m.

Type: Cargo ship. MMSI: 215679000.

Date/timePositionNaut miles runAvg speedWind from/ knotsBaromVisibWave heightAir tempDewpointWater temp
2015-Jan-05 15:09N 39°43' W 032°06'610.4
2015-Jan-05 14:33N 39°44' W 031°58'1110.6
2015-Jan-05 13:33N 39°45' W 031°44'1010.4
2015-Jan-05 12:33N 39°46' W 031°31'10 9.9
2015-Jan-05 11:33N 39°47' W 031°18'13 9.8
2015-Jan-05 10:15N 39°48' W 031°01'7 9.9
2015-Jan-05 09:33N 39°48' W 030°52'11 9.9
2015-Jan-05 08:28N 39°48' W 030°38'  
2014-Dec-31 00:32N 50°15' W 001°25'2613.1
2014-Dec-30 22:33N 50°22' W 000°46'1413.8
2014-Dec-30 21:33N 50°26' W 000°25'1313.3
2014-Dec-30 20:32N 50°30' W 000°05'1412.8
2014-Dec-30 19:26N 50°34' E 000°16'1112.3
2014-Dec-30 18:33N 50°36' E 000°33'1211.6
2014-Dec-30 17:33N 50°43' E 000°47'1111.4
2014-Dec-30 16:33N 50°50' E 001°01'1211.8
2014-Dec-30 15:33N 50°58' E 001°16'1313.5
2014-Dec-30 14:33N 51°07' E 001°32'1414.0
2014-Dec-30 13:33N 51°16' E 001°48'1313.1
2014-Dec-30 12:33N 51°28' E 001°58'1312.6
2014-Dec-30 11:33N 51°37' E 002°12'2911.8
2014-Dec-30 09:08N 51°58' E 002°43'4811.9
2014-Dec-30 05:05N 52°30' E 003°42'812.1
2014-Dec-30 04:24N 52°31' E 003°55'1012.0
2014-Dec-30 03:33N 52°31' E 004°12'10 9.8
2014-Dec-30 02:33N 52°29' E 004°28'5 5.2
2014-Dec-30 01:32N 52°28' E 004°36'0 0.0
2014-Dec-30 00:32N 52°28' E 004°36'0 0.0
2014-Dec-29 23:32N 52°28' E 004°36'0 0.0
2014-Dec-29 22:32N 52°28' E 004°36'0 0.0
2014-Dec-29 21:32N 52°28' E 004°36'0 0.0
2014-Dec-29 20:32N 52°28' E 004°36'0 0.0
2014-Dec-29 19:32N 52°28' E 004°36'0 0.0
2014-Dec-29 18:32N 52°28' E 004°36'0 0.0
2014-Dec-29 17:32N 52°28' E 004°36'0 0.0
2014-Dec-29 16:32N 52°28' E 004°36'0 0.0
2014-Dec-29 15:32N 52°28' E 004°36'0 0.0
2014-Dec-29 14:32N 52°28' E 004°36'0 0.0
2014-Dec-29 13:32N 52°28' E 004°36'0 0.0
2014-Dec-29 12:32N 52°28' E 004°36'0 0.0
2014-Dec-29 11:32N 52°28' E 004°36'0 0.0
2014-Dec-29 10:32N 52°28' E 004°36'0 0.0
2014-Dec-29 09:32N 52°28' E 004°36'0 0.0
2014-Dec-29 08:32N 52°28' E 004°36'0 0.0
2014-Dec-29 07:32N 52°28' E 004°36'0 0.0
2014-Dec-29 06:32N 52°28' E 004°36'0 0.0
2014-Dec-29 05:32N 52°28' E 004°36'0 0.0
2014-Dec-29 04:32N 52°28' E 004°36'0 0.0
2014-Dec-29 03:32N 52°28' E 004°36'0 0.0
2014-Dec-29 02:32N 52°28' E 004°36'0 0.0
2014-Dec-29 01:32N 52°28' E 004°36'0 0.0
2014-Dec-29 00:32N 52°28' E 004°36'0 0.0
2014-Dec-28 23:32N 52°28' E 004°36'0 0.0
2014-Dec-28 22:32N 52°28' E 004°36'0 0.0
2014-Dec-28 21:32N 52°28' E 004°36'0 0.0
2014-Dec-28 20:32N 52°28' E 004°36'0 0.0
2014-Dec-28 19:32N 52°28' E 004°36'0 0.0
2014-Dec-28 18:32N 52°28' E 004°36'0 0.0
2014-Dec-28 17:32N 52°28' E 004°36'0 0.0
2014-Dec-28 16:32N 52°28' E 004°36'0 0.0
2014-Dec-28 15:32N 52°28' E 004°36'0 0.0
2014-Dec-28 14:32N 52°28' E 004°36'0 0.0
2014-Dec-28 13:32N 52°28' E 004°36'0 0.0
2014-Dec-28 12:32N 52°28' E 004°36'0 0.0
2014-Dec-28 11:32N 52°28' E 004°36'0 0.0
2014-Dec-28 10:32N 52°28' E 004°36'0 0.0
2014-Dec-28 09:32N 52°28' E 004°36'0 0.0
2014-Dec-28 08:32N 52°28' E 004°36'0 0.0
2014-Dec-28 07:32N 52°28' E 004°36'0 0.0
2014-Dec-28 06:32N 52°28' E 004°36'0 0.0
2014-Dec-28 05:32N 52°28' E 004°36'0 0.0
2014-Dec-28 04:29N 52°28' E 004°36'0 0.0
2014-Dec-28 03:32N 52°28' E 004°36'0 0.0
2014-Dec-28 02:32N 52°28' E 004°36'0 0.0
2014-Dec-28 00:32N 52°28' E 004°36'0 0.0
2014-Dec-27 23:32N 52°28' E 004°36'0 0.0
2014-Dec-27 22:32N 52°28' E 004°36'0 0.0
2014-Dec-27 21:32N 52°28' E 004°36'0 0.0
2014-Dec-27 20:32N 52°28' E 004°36'0 0.0
2014-Dec-27 19:32N 52°28' E 004°36'0 0.0
2014-Dec-27 18:32N 52°28' E 004°36'0 0.0
2014-Dec-27 17:32N 52°28' E 004°36'0 0.0
2014-Dec-27 16:32N 52°28' E 004°36'0 0.0
2014-Dec-27 15:32N 52°28' E 004°36'0 0.0
2014-Dec-27 14:32N 52°28' E 004°36'0 0.0
2014-Dec-27 13:32N 52°28' E 004°36'0 0.0
2014-Dec-27 12:32N 52°28' E 004°36'0 0.0
2014-Dec-27 11:32N 52°28' E 004°36'0 0.0
2014-Dec-27 10:32N 52°28' E 004°36'0 0.0
2014-Dec-27 09:32N 52°28' E 004°36'0 0.0
2014-Dec-27 08:32N 52°28' E 004°36'0 0.0
2014-Dec-27 07:32N 52°28' E 004°36'0 0.0
2014-Dec-27 06:32N 52°28' E 004°36'0 0.0
2014-Dec-27 05:32N 52°28' E 004°36'0 0.0
2014-Dec-27 04:32N 52°28' E 004°36'0 0.0
2014-Dec-27 03:32N 52°28' E 004°36'0 0.0
2014-Dec-27 02:32N 52°28' E 004°36'0 0.0
2014-Dec-27 01:32N 52°28' E 004°36'0 0.0
2014-Dec-27 00:32N 52°28' E 004°36'0 0.0
2014-Dec-26 23:32N 52°28' E 004°36'0 0.0
2014-Dec-26 22:32N 52°28' E 004°36'0 0.0
2014-Dec-26 21:32N 52°28' E 004°36'0 0.0
2014-Dec-26 20:32N 52°28' E 004°36'0 0.0
2014-Dec-26 19:32N 52°28' E 004°36'0 0.0
2014-Dec-26 18:32N 52°28' E 004°36'0 0.0
2014-Dec-26 17:32N 52°28' E 004°36'0 0.0
2014-Dec-26 16:32N 52°28' E 004°36'0 0.0
2014-Dec-26 15:32N 52°28' E 004°36'  
Track history (hours):
 
Tides and Currents Weather Stations Pressure Air Temp Water Temp Dewpoint Dewpoint Depression Visibility Wind Speed Wind Dir Waves Ship Positions

Trabzon

Last reported at 2015-Jan-05 15:09 UTC. Time now 2015-Jan-28 12:15 UTC.
Position N 39°43' W 032°06'.
Warning: this ship's position is 22 days out of date.

Length 229 m; draft 10.5 m.

Type: Cargo ship. MMSI: 215679000.

Date/timePositionNaut miles runAvg speedWind from/ knotsBaromVisibWave heightAir tempDewpointWater temp
2015-Jan-05 15:09N 39°43' W 032°06'610.4
2015-Jan-05 14:33N 39°44' W 031°58'1110.6
2015-Jan-05 13:33N 39°45' W 031°44'1010.4
2015-Jan-05 12:33N 39°46' W 031°31'10 9.9
2015-Jan-05 11:33N 39°47' W 031°18'13 9.8
2015-Jan-05 10:15N 39°48' W 031°01'7 9.9
2015-Jan-05 09:33N 39°48' W 030°52'11 9.9
2015-Jan-05 08:28N 39°48' W 030°38'  
2014-Dec-31 00:32N 50°15' W 001°25'2613.1
2014-Dec-30 22:33N 50°22' W 000°46'1413.8
2014-Dec-30 21:33N 50°26' W 000°25'1313.3
2014-Dec-30 20:32N 50°30' W 000°05'1412.8
2014-Dec-30 19:26N 50°34' E 000°16'1112.3
2014-Dec-30 18:33N 50°36' E 000°33'1211.6
2014-Dec-30 17:33N 50°43' E 000°47'1111.4
2014-Dec-30 16:33N 50°50' E 001°01'1211.8
2014-Dec-30 15:33N 50°58' E 001°16'1313.5
2014-Dec-30 14:33N 51°07' E 001°32'1414.0
2014-Dec-30 13:33N 51°16' E 001°48'1313.1
2014-Dec-30 12:33N 51°28' E 001°58'1312.6
2014-Dec-30 11:33N 51°37' E 002°12'2911.8
2014-Dec-30 09:08N 51°58' E 002°43'4811.9
2014-Dec-30 05:05N 52°30' E 003°42'812.1
2014-Dec-30 04:24N 52°31' E 003°55'1012.0
2014-Dec-30 03:33N 52°31' E 004°12'10 9.8
2014-Dec-30 02:33N 52°29' E 004°28'5 5.2
2014-Dec-30 01:32N 52°28' E 004°36'0 0.0
2014-Dec-30 00:32N 52°28' E 004°36'0 0.0
2014-Dec-29 23:32N 52°28' E 004°36'0 0.0
2014-Dec-29 22:32N 52°28' E 004°36'0 0.0
2014-Dec-29 21:32N 52°28' E 004°36'0 0.0
2014-Dec-29 20:32N 52°28' E 004°36'0 0.0
2014-Dec-29 19:32N 52°28' E 004°36'0 0.0
2014-Dec-29 18:32N 52°28' E 004°36'0 0.0
2014-Dec-29 17:32N 52°28' E 004°36'0 0.0
2014-Dec-29 16:32N 52°28' E 004°36'0 0.0
2014-Dec-29 15:32N 52°28' E 004°36'0 0.0
2014-Dec-29 14:32N 52°28' E 004°36'0 0.0
2014-Dec-29 13:32N 52°28' E 004°36'0 0.0
2014-Dec-29 12:32N 52°28' E 004°36'0 0.0
2014-Dec-29 11:32N 52°28' E 004°36'0 0.0
2014-Dec-29 10:32N 52°28' E 004°36'0 0.0
2014-Dec-29 09:32N 52°28' E 004°36'0 0.0
2014-Dec-29 08:32N 52°28' E 004°36'0 0.0
2014-Dec-29 07:32N 52°28' E 004°36'0 0.0
2014-Dec-29 06:32N 52°28' E 004°36'0 0.0
2014-Dec-29 05:32N 52°28' E 004°36'0 0.0
2014-Dec-29 04:32N 52°28' E 004°36'0 0.0
2014-Dec-29 03:32N 52°28' E 004°36'0 0.0
2014-Dec-29 02:32N 52°28' E 004°36'0 0.0
2014-Dec-29 01:32N 52°28' E 004°36'0 0.0
2014-Dec-29 00:32N 52°28' E 004°36'0 0.0
2014-Dec-28 23:32N 52°28' E 004°36'0 0.0
2014-Dec-28 22:32N 52°28' E 004°36'0 0.0
2014-Dec-28 21:32N 52°28' E 004°36'0 0.0
2014-Dec-28 20:32N 52°28' E 004°36'0 0.0
2014-Dec-28 19:32N 52°28' E 004°36'0 0.0
2014-Dec-28 18:32N 52°28' E 004°36'0 0.0
2014-Dec-28 17:32N 52°28' E 004°36'0 0.0
2014-Dec-28 16:32N 52°28' E 004°36'0 0.0
2014-Dec-28 15:32N 52°28' E 004°36'0 0.0
2014-Dec-28 14:32N 52°28' E 004°36'0 0.0
2014-Dec-28 13:32N 52°28' E 004°36'0 0.0
2014-Dec-28 12:32N 52°28' E 004°36'0 0.0
2014-Dec-28 11:32N 52°28' E 004°36'0 0.0
2014-Dec-28 10:32N 52°28' E 004°36'0 0.0
2014-Dec-28 09:32N 52°28' E 004°36'0 0.0
2014-Dec-28 08:32N 52°28' E 004°36'0 0.0
2014-Dec-28 07:32N 52°28' E 004°36'0 0.0
2014-Dec-28 06:32N 52°28' E 004°36'0 0.0
2014-Dec-28 05:32N 52°28' E 004°36'0 0.0
2014-Dec-28 04:29N 52°28' E 004°36'0 0.0
2014-Dec-28 03:32N 52°28' E 004°36'0 0.0
2014-Dec-28 02:32N 52°28' E 004°36'0 0.0
2014-Dec-28 00:32N 52°28' E 004°36'0 0.0
2014-Dec-27 23:32N 52°28' E 004°36'0 0.0
2014-Dec-27 22:32N 52°28' E 004°36'0 0.0
2014-Dec-27 21:32N 52°28' E 004°36'0 0.0
2014-Dec-27 20:32N 52°28' E 004°36'0 0.0
2014-Dec-27 19:32N 52°28' E 004°36'0 0.0
2014-Dec-27 18:32N 52°28' E 004°36'0 0.0
2014-Dec-27 17:32N 52°28' E 004°36'0 0.0
2014-Dec-27 16:32N 52°28' E 004°36'0 0.0
2014-Dec-27 15:32N 52°28' E 004°36'0 0.0
2014-Dec-27 14:32N 52°28' E 004°36'0 0.0
2014-Dec-27 13:32N 52°28' E 004°36'0 0.0
2014-Dec-27 12:32N 52°28' E 004°36'0 0.0
2014-Dec-27 11:32N 52°28' E 004°36'0 0.0
2014-Dec-27 10:32N 52°28' E 004°36'0 0.0
2014-Dec-27 09:32N 52°28' E 004°36'0 0.0
2014-Dec-27 08:32N 52°28' E 004°36'0 0.0
2014-Dec-27 07:32N 52°28' E 004°36'0 0.0
2014-Dec-27 06:32N 52°28' E 004°36'0 0.0
2014-Dec-27 05:32N 52°28' E 004°36'0 0.0
2014-Dec-27 04:32N 52°28' E 004°36'0 0.0
2014-Dec-27 03:32N 52°28' E 004°36'0 0.0
2014-Dec-27 02:32N 52°28' E 004°36'0 0.0
2014-Dec-27 01:32N 52°28' E 004°36'0 0.0
2014-Dec-27 00:32N 52°28' E 004°36'0 0.0
2014-Dec-26 23:32N 52°28' E 004°36'0 0.0
2014-Dec-26 22:32N 52°28' E 004°36'0 0.0
2014-Dec-26 21:32N 52°28' E 004°36'0 0.0
2014-Dec-26 20:32N 52°28' E 004°36'0 0.0
2014-Dec-26 19:32N 52°28' E 004°36'0 0.0
2014-Dec-26 18:32N 52°28' E 004°36'0 0.0
2014-Dec-26 17:32N 52°28' E 004°36'0 0.0
2014-Dec-26 16:32N 52°28' E 004°36'0 0.0
2014-Dec-26 15:32N 52°28' E 004°36'  

Dump ship's entire track history